Enter the Airport ICAO Code

Search by Airport or City

Current Weather

GCLA | La Palma Airport

La Palma, Canary Islands, Spain

Last Update 33 Minutes Ago

Sky with Few Clouds

Temperature of 26 ºC

Moderate Winds from North

Temperature

26 ºC

Dew Point Temperature

20 ºC

Relative Humidity

69.7 %

Wind Direction

North (010º, Ranging from 340º to 050º)

Wind Velocity

24 km/h (13 kt)

Gusts

None

Visibility

Greater than 10 Kilometers

Sea Level Pressure

1018 hPa (Hectopascals)

Layers of Clouds

5% to 30% of Sky Covered from 1067 mts (3500 ft) Above Ground Level.

METAR GCLA 121500Z 01013KT 340V050 9999 FEW035 26/20 Q1018

Weather Forecast

GCLA | La Palma Airport

La Palma, Canary Islands, Spain

Forecast valid for the next 23 Hours

From now on it is expected:

Sky with Few Clouds

Moderate Winds from North

In 4 to 6 hours it is expected the begining of:

Light to Moderate Winds from NorthWest

Maximum Temperature

27 ºC in 22 Hours

Minimum Temperature

21 ºC in 14 Hours

TAF GCLA 121400Z 1215/1315 02012KT 9999 FEW030 TX27/1314Z TN21/1306Z BECMG 1220/1222 32008KT